Flight Track Log - Related Links

Times and Time Zones

All times are in EDT time to prevent confusion due to time zone crossing. See the EJA929 flight status page for this flight to view local times or setup timezone preferences in your user account.

Time Position Orientation Groundspeed Altitude Reporting Facility
EDT Latitude Longitude Course Direction KTS MPH feet Rate Location/Type
Sun 01:57:00 PM 39.3835 -106.8335 322° Northwest  Level FlightAware Approximate
Sun 01:58:00 PM 39.4748 -106.9247 322° Northwest  Level FlightAware Approximate
Sun 01:58:18 PM 38.8011 -106.0578 325° Northwest 326 375 16,800  Level Denver Center
Sun 01:59:00 PM 39.5661 -107.0161 322° Northwest  Level FlightAware Approximate
Sun 01:59:20 PM 38.8575 -106.1325 314° West 295 339 19,000  Level Denver Center
Sun 02:00:00 PM 39.6575 -107.1075 322° Northwest  Level FlightAware Approximate
Sun 02:00:22 PM 38.9536 -106.1697 343° North 352 405 20,800  Level Denver Center
Sun 02:01:00 PM 39.7500 -107.1905 270° West  Level FlightAware Approximate
Sun 02:01:24 PM 39.0486 -106.1864 352° North 359 413 22,900  Level Denver Center
Sun 02:02:00 PM 39.8402 -107.2773 327° Northwest  Level FlightAware Approximate
Sun 02:02:27 PM 39.1483 -106.2553 332° Northwest 372 428 25,000  Level Denver Center
Sun 02:03:00 PM 39.9356 -107.3619 325° Northwest  Level FlightAware Approximate
Sun 02:03:29 PM 39.2281 -106.3386 321° Northwest 383 441 26,700  Level Denver Center
Sun 02:04:31 PM 39.3206 -106.4394 320° Northwest 388 447 29,000 1,887 Climbing Denver Center
Sun 02:05:33 PM 39.4025 -106.5283 320° Northwest 398 458 30,600 1,839 Climbing Denver Center
Sun 02:06:35 PM 39.4983 -106.6325 320° Northwest 401 461 32,800 1,500 Climbing Denver Center
Sun 02:07:37 PM 39.5831 -106.7267 319° Northwest 415 478 33,700 581 Climbing Denver Center
Sun 02:08:39 PM 39.6839 -106.8386 320° Northwest 444 511 34,000 145 Climbing Denver Center
Sun 02:09:41 PM 39.7856 -106.9481 320° Northwest 476 548 34,000  Level Denver Center
Sun 02:10:43 PM 39.8867 -107.0600 320° Northwest 479 551 34,000  Level Denver Center
Sun 02:11:45 PM 39.9950 -107.1808 320° Northwest 476 548 34,000  Level Denver Center
Sun 02:12:47 PM 40.0931 -107.2897 320° Northwest 483 556 34,000  Level Denver Center
Sun 02:13:49 PM 40.2056 -107.4161 319° Northwest 481 554 34,000  Level Denver Center
Sun 02:14:51 PM 40.2847 -107.5067 319° Northwest 477 549 34,000  Level Denver Center
Sun 02:15:53 PM 40.4136 -107.6506 320° Northwest 479 551 34,000  Level Denver Center
Sun 02:16:55 PM 40.5092 -107.7603 319° Northwest 478 550 34,000  Level Denver Center
Sun 02:17:57 PM 40.6211 -107.8858 320° Northwest 476 548 34,000  Level Denver Center
Sun 02:18:59 PM 40.7178 -107.9958 319° Northwest 480 552 34,000  Level Denver Center
Sun 02:20:01 PM 40.8197 -108.1131 319° Northwest 477 549 34,000  Level Denver Center
Sun 02:21:03 PM 40.9311 -108.2411 319° Northwest 475 547 34,000  Level Denver Center
Sun 02:22:01 PM 41.0269 -108.3533 319° Northwest 478 550 34,000  Level Salt Lake Center
Sun 02:22:06 PM 41.0269 -108.3533 319° Northwest 480 552 34,000  Level Denver Center
Sun 02:23:03 PM 41.1219 -108.4642 319° Northwest 478 550 34,000  Level Salt Lake Center
Sun 02:24:05 PM 41.2331 -108.5939 319° Northwest 477 549 34,000  Level Salt Lake Center
Sun 02:25:12 PM 41.3447 -108.7239 319° Northwest 481 554 34,000  Level Denver Center
Sun 02:26:09 PM 41.4392 -108.8356 318° Northwest 479 551 34,000  Level Salt Lake Center
Sun 02:27:12 PM 41.5333 -108.9469 318° Northwest 481 554 34,000  Level Salt Lake Center
Sun 02:28:14 PM 41.6453 -109.0744 320° Northwest 482 555 34,000  Level Salt Lake Center
Sun 02:29:16 PM 41.7600 -109.2011 321° Northwest 483 556 34,000  Level Salt Lake Center
Sun 02:30:18 PM 41.8592 -109.3100 321° Northwest 484 557 34,000  Level Salt Lake Center
Sun 02:31:20 PM 41.9747 -109.4375 321° Northwest 483 556 34,000  Level Salt Lake Center
Sun 02:32:22 PM 42.0753 -109.5483 321° Northwest 487 560 34,000  Level Salt Lake Center
Sun 02:33:24 PM 42.1906 -109.6761 321° Northwest 483 556 34,000  Level Salt Lake Center
Sun 02:34:26 PM 42.2900 -109.7869 321° Northwest 485 558 34,000  Level Salt Lake Center
Sun 02:35:28 PM 42.3892 -109.8978 320° Northwest 485 558 34,000 -871 Level Salt Lake Center
Sun 02:36:30 PM 42.5042 -110.0278 320° Northwest 482 555 32,200 -2,081 Descending Salt Lake Center
Sun 02:37:32 PM 42.6147 -110.1156 330° Northwest 482 555 29,700 -2,565 Descending Salt Lake Center
Sun 02:38:34 PM 42.7453 -110.1967 335° Northwest 483 556 26,900 -2,661 Descending Salt Lake Center
Sun 02:39:36 PM 42.8758 -110.2778 336° Northwest 465 535 24,200 -2,371 Descending Salt Lake Center
Sun 02:40:38 PM 42.9831 -110.3442 336° Northwest 447 514 22,000 -2,032 Descending Salt Lake Center
Sun 02:41:40 PM 43.0969 -110.3789 347° North 421 484 20,000 -1,742 Descending Salt Lake Center
Sun 02:42:42 PM 43.2033 -110.3883 356° North 345 397 18,400 -1,839 Descending Salt Lake Center
Sun 02:43:44 PM 43.2925 -110.3933 358° North 318 366 16,200 -1,839 Descending Salt Lake Center
Sun 02:44:46 PM 43.3736 -110.4144 349° North 304 350 14,600 -1,016 Descending Salt Lake Center
Sun 02:45:48 PM 43.4350 -110.4694 327° Northwest 262 302 14,100 -871 Descending Salt Lake Center
Sun 02:46:50 PM 43.5017 -110.5292 327° Northwest 283 326 12,800 -1,016 Descending Salt Lake Center
Sun 02:47:52 PM 43.5644 -110.5864 327° Northwest 277 319 12,000 -976 Descending Salt Lake Center
Sun 02:48:53 PM 43.6431 -110.6131 346° North 254 292 10,800 -1,366 Descending Salt Lake Center
Sun 02:49:55 PM 43.6886 -110.6611 323° Northwest 224 258 9,200 -1,548 Descending Salt Lake Center
Sun 02:50:57 PM 43.6694 -110.7056 239° Southwest 171 197 7,600 -1,161 Descending Salt Lake Center
Sun 02:51:59 PM 43.6308 -110.7275 202° Southwest 155 178 6,800 -774 Descending Salt Lake Center

Login

Don't have an account? Register now (free) for customized features, flight alerts, and more!